createdAt,value
2017-08-25T00:00:14.900Z,17.85
2017-08-25T00:02:40.675Z,18.23
2017-08-25T00:05:06.477Z,18.28
2017-08-25T00:07:32.229Z,18.04
2017-08-25T00:09:57.984Z,18.14
2017-08-25T00:12:23.756Z,18.17
2017-08-25T00:14:49.595Z,18.22
2017-08-25T00:17:15.380Z,18.05
2017-08-25T00:19:41.138Z,17.60
2017-08-25T00:22:06.904Z,16.59
2017-08-25T00:24:32.677Z,17.16
2017-08-25T00:26:58.490Z,17.24
2017-08-25T00:29:24.233Z,17.29
2017-08-25T00:31:49.991Z,17.30
2017-08-25T00:34:15.803Z,17.06
2017-08-25T00:36:41.568Z,17.02
2017-08-25T00:39:07.317Z,17.02
2017-08-25T00:41:33.123Z,17.15
2017-08-25T00:43:58.903Z,17.10
2017-08-25T00:46:24.701Z,16.95
2017-08-25T00:48:50.479Z,16.71
2017-08-25T00:51:16.241Z,16.28
2017-08-25T00:53:42.055Z,16.19
2017-08-25T00:56:07.938Z,16.25
2017-08-25T00:58:33.730Z,16.68
2017-08-25T01:00:59.517Z,16.96
2017-08-25T01:03:25.270Z,17.05
2017-08-25T01:05:51.088Z,17.16
2017-08-25T01:08:16.856Z,17.03
2017-08-25T01:10:42.625Z,16.77
2017-08-25T01:13:08.438Z,16.94
2017-08-25T01:15:34.212Z,17.10
2017-08-25T01:18:00.038Z,17.25
2017-08-25T01:20:25.824Z,17.24
2017-08-25T01:22:51.598Z,17.12
2017-08-25T01:25:17.425Z,17.27
2017-08-25T01:27:43.221Z,17.22
2017-08-25T01:30:08.996Z,17.31
2017-08-25T01:32:34.795Z,17.32
2017-08-25T01:35:00.558Z,16.96
2017-08-25T01:37:26.311Z,16.87
2017-08-25T01:39:52.116Z,16.64
2017-08-25T01:42:17.955Z,17.03
2017-08-25T01:44:43.732Z,17.24
2017-08-25T01:47:09.491Z,17.28
2017-08-25T01:49:35.300Z,17.34
2017-08-25T01:52:01.075Z,17.40
2017-08-25T01:54:26.839Z,17.41
2017-08-25T01:56:52.623Z,17.33
2017-08-25T01:59:18.442Z,17.01
2017-08-25T02:01:44.218Z,17.05
2017-08-25T02:04:09.983Z,17.20
2017-08-25T02:06:35.774Z,17.33
2017-08-25T02:09:01.559Z,17.34
2017-08-25T02:11:27.335Z,17.28
2017-08-25T02:13:53.155Z,17.29
2017-08-25T02:16:18.963Z,17.20
2017-08-25T02:18:44.761Z,17.28
2017-08-25T02:21:10.634Z,17.20
2017-08-25T02:23:36.427Z,17.25
2017-08-25T02:26:02.188Z,17.22
2017-08-25T02:28:28.001Z,17.30
2017-08-25T02:30:53.787Z,17.32
2017-08-25T02:33:19.626Z,17.24
2017-08-25T02:35:45.377Z,16.24
2017-08-25T02:38:11.156Z,16.31
2017-08-25T02:40:37.014Z,16.84
2017-08-25T02:43:02.795Z,16.95
2017-08-25T02:45:28.561Z,17.08
2017-08-25T02:47:54.351Z,16.98
2017-08-25T02:50:20.171Z,17.15
2017-08-25T02:52:45.936Z,17.11
2017-08-25T02:55:11.709Z,16.80
2017-08-25T02:57:37.490Z,16.84
2017-08-25T03:00:03.278Z,16.91
2017-08-25T03:02:29.063Z,16.91
2017-08-25T03:04:54.842Z,16.67
2017-08-25T03:07:20.592Z,16.79
2017-08-25T03:09:46.528Z,16.83
2017-08-25T03:12:12.287Z,16.76
2017-08-25T03:14:38.053Z,16.56
2017-08-25T03:17:03.882Z,16.45
2017-08-25T03:19:29.640Z,16.52
2017-08-25T03:21:55.426Z,16.68
2017-08-25T03:24:21.239Z,16.66
2017-08-25T03:26:47.035Z,16.69
2017-08-25T03:29:12.835Z,16.68
2017-08-25T03:31:38.611Z,16.62
2017-08-25T03:34:04.378Z,16.63
2017-08-25T03:36:30.143Z,16.61
2017-08-25T03:38:55.947Z,16.60
2017-08-25T03:41:21.752Z,16.58
2017-08-25T03:43:47.512Z,16.51
2017-08-25T03:46:13.271Z,16.45
2017-08-25T03:48:39.061Z,16.51
2017-08-25T03:51:04.811Z,16.54
2017-08-25T03:53:30.611Z,16.50
2017-08-25T03:55:56.423Z,16.53
2017-08-25T03:58:22.179Z,16.58
2017-08-25T04:00:47.970Z,16.64
2017-08-25T04:03:13.796Z,16.63
2017-08-25T04:05:39.624Z,16.72
2017-08-25T04:08:05.383Z,16.76
2017-08-25T04:10:31.207Z,16.86
2017-08-25T04:12:56.943Z,16.74
2017-08-25T04:15:22.703Z,16.72
2017-08-25T04:17:48.483Z,16.70
2017-08-25T04:20:14.242Z,16.69
2017-08-25T04:22:40.068Z,16.63
2017-08-25T04:25:05.854Z,16.69
2017-08-25T04:27:31.652Z,16.70
2017-08-25T04:29:57.506Z,16.70
2017-08-25T04:32:23.319Z,16.67
2017-08-25T04:34:49.118Z,16.67
2017-08-25T04:37:14.911Z,16.58
2017-08-25T04:39:40.763Z,16.48
2017-08-25T04:42:08.288Z,16.45
2017-08-25T04:44:34.157Z,16.53
2017-08-25T04:46:59.999Z,16.35
2017-08-25T04:49:25.803Z,16.31
2017-08-25T04:51:51.659Z,16.53
2017-08-25T04:54:17.433Z,16.57
2017-08-25T04:56:43.268Z,16.62
2017-08-25T04:59:09.743Z,16.56
2017-08-25T05:01:35.534Z,16.56
2017-08-25T05:04:01.379Z,16.75
2017-08-25T05:06:27.168Z,16.99
2017-08-25T05:08:53.046Z,16.76
2017-08-25T05:11:18.796Z,16.61
2017-08-25T05:13:44.659Z,16.53
2017-08-25T05:16:10.511Z,16.42
2017-08-25T05:18:36.583Z,16.35
2017-08-25T05:21:02.356Z,16.55
2017-08-25T05:23:28.144Z,16.65
2017-08-25T05:25:53.992Z,16.73
2017-08-25T05:28:19.828Z,16.74
2017-08-25T05:30:45.675Z,16.75
2017-08-25T05:33:11.463Z,16.86
2017-08-25T05:35:37.310Z,17.08
2017-08-25T05:38:03.170Z,16.87
2017-08-25T05:40:28.913Z,16.88
2017-08-25T05:42:54.775Z,16.75
2017-08-25T05:45:20.585Z,16.97
2017-08-25T05:47:46.335Z,16.90
2017-08-25T05:50:12.099Z,17.22
2017-08-25T05:52:37.895Z,16.76
2017-08-25T05:55:03.684Z,17.23
2017-08-25T05:57:29.435Z,17.49
2017-08-25T05:59:55.231Z,17.60
2017-08-25T06:02:20.978Z,17.72
2017-08-25T06:04:46.782Z,17.98
2017-08-25T06:07:12.578Z,18.22
2017-08-25T06:09:38.392Z,18.25
2017-08-25T06:12:04.147Z,18.53
2017-08-25T06:14:29.912Z,18.79
2017-08-25T06:16:55.706Z,18.97
2017-08-25T06:19:21.463Z,19.19
2017-08-25T06:21:47.270Z,18.93
2017-08-25T06:24:13.050Z,18.89
2017-08-25T06:26:38.808Z,18.97
2017-08-25T06:29:04.598Z,18.99
2017-08-25T06:31:30.343Z,18.91
2017-08-25T06:33:56.217Z,19.24
2017-08-25T06:36:21.999Z,19.75
2017-08-25T06:38:47.787Z,19.98
2017-08-25T06:41:13.546Z,20.05
2017-08-25T06:43:39.327Z,20.53
2017-08-25T06:46:05.123Z,20.72
2017-08-25T06:48:30.935Z,20.64
2017-08-25T06:50:56.740Z,20.65
2017-08-25T06:53:22.525Z,20.91
2017-08-25T06:55:48.281Z,21.17
2017-08-25T06:58:14.119Z,21.22
2017-08-25T07:00:39.958Z,21.39
2017-08-25T07:03:05.810Z,21.52
2017-08-25T07:05:31.595Z,21.85
2017-08-25T07:07:57.407Z,22.17
2017-08-25T07:10:23.204Z,22.26
2017-08-25T07:12:48.957Z,22.87
2017-08-25T07:15:14.706Z,23.06
2017-08-25T07:17:40.482Z,23.57
2017-08-25T07:20:06.243Z,23.14
2017-08-25T07:22:31.995Z,23.86
2017-08-25T07:24:57.815Z,24.00
2017-08-25T07:27:23.563Z,23.96
2017-08-25T07:29:49.326Z,24.45
2017-08-25T07:32:15.191Z,24.93
2017-08-25T07:34:40.937Z,25.26
2017-08-25T07:37:06.851Z,25.37
2017-08-25T07:39:32.612Z,25.40
2017-08-25T07:41:58.501Z,24.83
2017-08-25T07:44:24.299Z,25.02
2017-08-25T07:46:50.084Z,25.79
2017-08-25T07:49:15.909Z,25.63
2017-08-25T07:51:41.704Z,26.46
2017-08-25T07:54:07.460Z,26.34
2017-08-25T07:56:33.341Z,26.22
2017-08-25T07:58:59.109Z,26.16
2017-08-25T08:01:24.911Z,25.35
2017-08-25T08:03:50.708Z,25.26
2017-08-25T08:06:16.459Z,25.41
2017-08-25T08:08:42.322Z,26.26
2017-08-25T08:11:08.109Z,25.40
2017-08-25T08:13:33.891Z,25.67
2017-08-25T08:15:59.655Z,25.31
2017-08-25T08:18:25.427Z,24.89
2017-08-25T08:20:51.231Z,25.43
2017-08-25T08:23:17.032Z,25.19
2017-08-25T08:25:42.799Z,25.11
2017-08-25T08:28:08.638Z,24.93
2017-08-25T08:30:34.390Z,25.16
2017-08-25T08:33:00.187Z,25.10
2017-08-25T08:35:26.022Z,25.04
2017-08-25T08:37:51.809Z,25.43
2017-08-25T08:40:17.584Z,24.82
2017-08-25T08:42:43.360Z,25.41
2017-08-25T08:45:09.147Z,25.58
2017-08-25T08:47:34.931Z,26.08
2017-08-25T08:50:00.695Z,25.97
2017-08-25T08:52:26.493Z,25.75
2017-08-25T08:54:53.216Z,25.90
2017-08-25T08:57:19.035Z,25.78
2017-08-25T08:59:44.838Z,26.35
2017-08-25T09:02:10.688Z,26.07
2017-08-25T09:04:36.470Z,26.61
2017-08-25T09:07:02.231Z,26.90
2017-08-25T09:09:28.032Z,26.57
2017-08-25T09:11:53.863Z,26.74
2017-08-25T09:14:19.715Z,27.75
2017-08-25T09:16:45.512Z,27.83
2017-08-25T09:19:11.303Z,27.29
2017-08-25T09:21:37.073Z,27.77
2017-08-25T09:24:02.992Z,28.65
2017-08-25T09:26:28.820Z,28.25
2017-08-25T09:28:54.614Z,28.52
2017-08-25T09:31:20.462Z,28.04
2017-08-25T09:33:46.469Z,27.54
2017-08-25T09:36:12.309Z,28.29
2017-08-25T09:38:38.159Z,28.18
2017-08-25T09:41:03.918Z,27.47
2017-08-25T09:43:29.735Z,29.20
2017-08-25T09:45:55.627Z,28.48
2017-08-25T09:48:21.413Z,28.21
2017-08-25T09:50:47.197Z,29.75
2017-08-25T09:53:12.971Z,30.59
2017-08-25T09:55:38.914Z,29.85
2017-08-25T09:58:04.887Z,30.69
2017-08-25T10:00:30.751Z,31.12
2017-08-25T10:02:56.554Z,30.13
2017-08-25T10:05:22.358Z,30.15
2017-08-25T10:07:48.121Z,30.09
2017-08-25T10:10:13.945Z,29.86
2017-08-25T10:12:39.745Z,28.73
2017-08-25T10:15:05.503Z,29.47
2017-08-25T10:17:31.291Z,31.12
2017-08-25T10:19:57.054Z,30.40
2017-08-25T10:22:22.928Z,30.61
2017-08-25T10:24:48.721Z,30.31
2017-08-25T10:27:14.538Z,30.40
2017-08-25T10:29:40.302Z,30.63
2017-08-25T10:32:06.126Z,30.21
2017-08-25T10:34:44.299Z,30.12
2017-08-25T10:37:22.379Z,29.96
2017-08-25T10:40:00.572Z,29.96
2017-08-25T10:42:38.727Z,30.26
2017-08-25T10:45:14.531Z,30.06
2017-08-25T10:47:40.351Z,30.96
2017-08-25T10:50:06.203Z,31.50
2017-08-25T10:52:31.983Z,29.52
2017-08-25T10:54:58.292Z,30.50
2017-08-25T10:57:24.156Z,32.36
2017-08-25T10:59:49.952Z,33.21
2017-08-25T11:02:15.743Z,31.46
2017-08-25T11:04:41.562Z,31.47
2017-08-25T11:07:07.311Z,31.18
2017-08-25T11:09:33.102Z,30.04
2017-08-25T11:11:58.876Z,30.22
2017-08-25T11:14:24.650Z,30.55
2017-08-25T11:16:50.518Z,30.55
2017-08-25T11:19:16.286Z,31.76
2017-08-25T11:21:42.031Z,30.62
2017-08-25T11:24:07.949Z,33.54
2017-08-25T11:26:33.899Z,34.06
2017-08-25T11:28:59.702Z,33.44
2017-08-25T11:31:25.459Z,34.66
2017-08-25T11:33:51.322Z,33.98
2017-08-25T11:36:17.077Z,33.72
2017-08-25T11:38:42.877Z,34.30
2017-08-25T11:41:08.735Z,33.65
2017-08-25T11:43:34.506Z,35.22
2017-08-25T11:46:00.339Z,35.36
2017-08-25T11:48:26.101Z,31.73
2017-08-25T11:50:51.920Z,31.85
2017-08-25T11:53:17.694Z,32.03
2017-08-25T11:55:43.526Z,31.81
2017-08-25T11:58:09.312Z,32.33
2017-08-25T12:00:35.122Z,31.49
2017-08-25T12:03:00.934Z,32.72
2017-08-25T12:05:26.759Z,32.52
2017-08-25T12:07:52.538Z,31.95
2017-08-25T12:10:18.344Z,32.37
2017-08-25T12:12:44.119Z,33.59
2017-08-25T12:15:09.942Z,34.72
2017-08-25T12:17:35.705Z,34.11
2017-08-25T12:20:01.479Z,33.99
2017-08-25T12:22:27.241Z,35.95
2017-08-25T12:24:53.047Z,32.03
2017-08-25T12:27:19.580Z,31.87
2017-08-25T12:29:45.331Z,35.32
2017-08-25T12:32:11.111Z,34.89
2017-08-25T12:34:36.903Z,35.41
2017-08-25T12:37:02.750Z,33.71
2017-08-25T12:39:28.545Z,34.61
2017-08-25T12:41:54.299Z,34.93
2017-08-25T12:44:20.082Z,33.93
2017-08-25T12:46:45.836Z,33.24
2017-08-25T12:49:11.648Z,36.17
2017-08-25T12:51:37.411Z,33.46
2017-08-25T12:54:03.171Z,33.89
2017-08-25T12:56:29.066Z,34.32
2017-08-25T12:58:54.834Z,35.86
2017-08-25T13:01:20.640Z,36.24
2017-08-25T13:03:46.398Z,35.23
2017-08-25T13:06:12.154Z,34.29
2017-08-25T13:08:37.929Z,34.40
2017-08-25T13:11:03.690Z,33.31
2017-08-25T13:13:29.554Z,32.78
2017-08-25T13:15:55.311Z,34.68
2017-08-25T13:18:21.123Z,33.13
2017-08-25T13:20:46.898Z,33.35
2017-08-25T13:23:12.649Z,33.85
2017-08-25T13:25:38.427Z,34.06
2017-08-25T13:28:04.195Z,35.47
2017-08-25T13:30:29.996Z,34.04
2017-08-25T13:32:55.804Z,36.17
2017-08-25T13:35:21.587Z,36.36
2017-08-25T13:37:47.367Z,36.68
2017-08-25T13:40:13.127Z,37.19
2017-08-25T13:42:38.915Z,37.66
2017-08-25T13:45:04.679Z,35.81
2017-08-25T13:47:30.471Z,34.50
2017-08-25T13:49:56.258Z,35.89
2017-08-25T13:52:22.154Z,35.88
2017-08-25T13:54:48.801Z,35.02
2017-08-25T13:57:14.661Z,34.36
2017-08-25T13:59:40.479Z,34.39
2017-08-25T14:02:06.311Z,32.45
2017-08-25T14:04:32.068Z,35.42
2017-08-25T14:06:57.863Z,35.95
2017-08-25T14:09:23.711Z,34.86
2017-08-25T14:11:49.454Z,35.13
2017-08-25T14:14:15.232Z,34.42
2017-08-25T14:16:40.991Z,32.95
2017-08-25T14:19:06.768Z,33.97
2017-08-25T14:21:32.645Z,35.69
2017-08-25T14:23:58.395Z,34.79
2017-08-25T14:26:24.206Z,35.10
2017-08-25T14:28:49.992Z,34.79
2017-08-25T14:31:15.767Z,35.46
2017-08-25T14:33:41.563Z,35.38
2017-08-25T14:36:07.328Z,36.30
2017-08-25T14:38:33.083Z,36.35
2017-08-25T14:40:58.873Z,36.39
2017-08-25T14:43:24.621Z,36.90
2017-08-25T14:45:50.412Z,37.16
2017-08-25T14:48:16.278Z,36.68
2017-08-25T14:50:42.124Z,35.60
2017-08-25T14:53:07.908Z,35.63
2017-08-25T14:55:33.679Z,34.13
2017-08-25T14:57:59.431Z,34.42
2017-08-25T15:00:25.227Z,34.16
2017-08-25T15:02:51.018Z,35.32
2017-08-25T15:05:16.767Z,34.46
2017-08-25T15:07:42.543Z,34.03
2017-08-25T15:10:08.315Z,34.19
2017-08-25T15:12:34.143Z,34.20
2017-08-25T15:14:59.935Z,34.84
2017-08-25T15:17:25.690Z,35.88
2017-08-25T15:19:51.460Z,36.24
2017-08-25T15:22:17.211Z,35.59
2017-08-25T15:24:43.003Z,36.22
2017-08-25T15:27:08.858Z,36.58
2017-08-25T15:29:34.615Z,36.63
2017-08-25T15:32:00.403Z,36.34
2017-08-25T15:34:26.193Z,35.77
2017-08-25T15:36:51.979Z,35.95
2017-08-25T15:39:17.754Z,35.93
2017-08-25T15:41:43.546Z,36.34
2017-08-25T15:44:09.315Z,35.63
2017-08-25T15:46:35.131Z,35.44
2017-08-25T15:49:00.892Z,35.32
2017-08-25T15:51:26.661Z,34.33
2017-08-25T15:53:52.563Z,34.73
2017-08-25T15:56:18.340Z,35.12
2017-08-25T15:58:44.150Z,34.54
2017-08-25T16:01:09.908Z,34.19
2017-08-25T16:03:35.714Z,33.94
2017-08-25T16:06:01.474Z,32.78
2017-08-25T16:08:27.224Z,32.35
2017-08-25T16:10:53.009Z,32.03
2017-08-25T16:13:18.803Z,31.60
2017-08-25T16:15:44.683Z,31.29
2017-08-25T16:18:10.480Z,31.15
2017-08-25T16:20:36.244Z,31.11
2017-08-25T16:23:02.035Z,30.97
2017-08-25T16:25:27.815Z,31.15
2017-08-25T16:27:53.599Z,31.78
2017-08-25T16:30:19.380Z,31.78
2017-08-25T16:32:45.179Z,31.38
2017-08-25T16:35:10.933Z,31.67
2017-08-25T16:37:36.728Z,31.98
2017-08-25T16:40:02.495Z,32.01
2017-08-25T16:42:28.270Z,31.89
2017-08-25T16:44:54.046Z,31.39
2017-08-25T16:47:19.863Z,30.98
2017-08-25T16:49:45.707Z,30.53
2017-08-25T16:52:11.460Z,30.61
2017-08-25T16:54:37.233Z,30.82
2017-08-25T16:57:03.010Z,30.67
2017-08-25T16:59:28.758Z,30.43
2017-08-25T17:01:54.539Z,30.40
2017-08-25T17:04:20.299Z,30.18
2017-08-25T17:06:46.087Z,30.00
2017-08-25T17:09:11.876Z,30.04
2017-08-25T17:11:37.679Z,29.90
2017-08-25T17:14:03.475Z,29.87
2017-08-25T17:16:29.286Z,29.86
2017-08-25T17:18:55.043Z,29.74
2017-08-25T17:21:20.807Z,29.70
2017-08-25T17:23:46.596Z,29.50
2017-08-25T17:26:12.345Z,29.53
2017-08-25T17:28:38.203Z,29.45
2017-08-25T17:31:03.965Z,29.24
2017-08-25T17:33:29.727Z,29.06
2017-08-25T17:35:55.531Z,28.98
2017-08-25T17:38:21.299Z,28.73
2017-08-25T17:40:47.068Z,28.68
2017-08-25T17:43:12.865Z,28.54
2017-08-25T17:45:38.629Z,28.38
2017-08-25T17:48:04.401Z,28.09
2017-08-25T17:50:30.182Z,28.17
2017-08-25T17:52:55.983Z,27.96
2017-08-25T17:55:21.743Z,27.78
2017-08-25T17:57:47.561Z,27.52
2017-08-25T18:00:13.355Z,27.42
2017-08-25T18:02:39.155Z,27.45
2017-08-25T18:05:04.983Z,27.35
2017-08-25T18:07:30.731Z,27.15
2017-08-25T18:09:56.487Z,27.11
2017-08-25T18:12:22.270Z,27.07
2017-08-25T18:14:48.032Z,26.77
2017-08-25T18:17:13.907Z,26.54
2017-08-25T18:19:39.657Z,26.58
2017-08-25T18:22:05.464Z,26.46
2017-08-25T18:24:31.220Z,26.36
2017-08-25T18:26:57.099Z,26.28
2017-08-25T18:29:22.856Z,26.20
2017-08-25T18:31:48.646Z,26.00
2017-08-25T18:34:14.443Z,26.09
2017-08-25T18:36:40.274Z,26.07
2017-08-25T18:39:06.038Z,25.99
2017-08-25T18:41:31.952Z,25.87
2017-08-25T18:43:57.763Z,25.78
2017-08-25T18:46:23.524Z,25.78
2017-08-25T18:48:49.287Z,25.68
2017-08-25T18:51:15.088Z,25.71
2017-08-25T18:53:40.912Z,25.39
2017-08-25T18:56:06.799Z,25.31
2017-08-25T18:58:32.694Z,25.38
2017-08-25T19:00:58.472Z,25.36
2017-08-25T19:03:24.587Z,25.34
2017-08-25T19:05:50.375Z,25.16
2017-08-25T19:08:16.191Z,25.05
2017-08-25T19:10:41.988Z,24.89
2017-08-25T19:13:07.751Z,24.75
2017-08-25T19:15:33.528Z,24.87
2017-08-25T19:17:59.314Z,24.73
2017-08-25T19:20:25.921Z,24.66
2017-08-25T19:22:51.695Z,24.74
2017-08-25T19:25:17.451Z,24.75
2017-08-25T19:27:43.399Z,24.60
2017-08-25T19:30:09.151Z,24.69
2017-08-25T19:32:34.966Z,24.60
2017-08-25T19:35:00.764Z,24.19
2017-08-25T19:37:26.526Z,24.09
2017-08-25T19:39:52.279Z,24.05
2017-08-25T19:42:18.115Z,24.03
2017-08-25T19:44:43.879Z,23.99
2017-08-25T19:47:09.627Z,23.99
2017-08-25T19:49:35.691Z,23.68
2017-08-25T19:52:01.442Z,23.79
2017-08-25T19:54:27.230Z,23.63
2017-08-25T19:56:53.119Z,23.51
2017-08-25T19:59:18.871Z,23.48
2017-08-25T20:01:44.771Z,23.39
2017-08-25T20:04:10.568Z,23.29
2017-08-25T20:06:36.359Z,23.22
2017-08-25T20:09:02.242Z,23.16
2017-08-25T20:11:29.110Z,23.28
2017-08-25T20:13:54.899Z,23.26
2017-08-25T20:16:20.730Z,23.15
2017-08-25T20:18:46.574Z,23.09
2017-08-25T20:21:12.362Z,23.15
2017-08-25T20:23:38.149Z,22.99
2017-08-25T20:26:03.903Z,22.90
2017-08-25T20:28:29.707Z,22.98
2017-08-25T20:30:55.496Z,22.84
2017-08-25T20:33:21.251Z,22.80
2017-08-25T20:35:47.061Z,22.71
2017-08-25T20:38:12.811Z,22.59
2017-08-25T20:40:38.583Z,22.60
2017-08-25T20:43:04.423Z,22.63
2017-08-25T20:45:30.210Z,22.46
2017-08-25T20:47:55.999Z,22.48
2017-08-25T20:50:21.778Z,22.56
2017-08-25T20:52:47.544Z,22.59
2017-08-25T20:55:13.331Z,22.60
2017-08-25T20:57:39.494Z,22.48
2017-08-25T21:00:05.439Z,22.42
2017-08-25T21:02:31.207Z,22.37
2017-08-25T21:04:57.000Z,22.40
2017-08-25T21:07:22.775Z,22.49
2017-08-25T21:09:48.548Z,22.47
2017-08-25T21:12:14.320Z,22.42
2017-08-25T21:14:40.131Z,22.43
2017-08-25T21:17:05.887Z,22.13
2017-08-25T21:19:31.718Z,21.90
2017-08-25T21:21:57.469Z,22.09
2017-08-25T21:24:23.234Z,22.06
2017-08-25T21:26:49.056Z,22.11
2017-08-25T21:29:14.818Z,22.00
2017-08-25T21:31:40.617Z,22.10
2017-08-25T21:34:07.735Z,22.19
2017-08-25T21:36:33.496Z,22.14
2017-08-25T21:38:59.270Z,22.07
2017-08-25T21:41:25.065Z,21.96
2017-08-25T21:43:50.867Z,21.93
2017-08-25T21:46:16.624Z,21.83
2017-08-25T21:48:42.378Z,21.67
2017-08-25T21:51:08.166Z,21.65
2017-08-25T21:53:33.951Z,21.61
2017-08-25T21:55:59.727Z,21.54
2017-08-25T21:58:25.499Z,21.51
2017-08-25T22:00:51.299Z,21.51
2017-08-25T22:03:17.052Z,21.37
2017-08-25T22:05:42.821Z,21.34
2017-08-25T22:10:34.273Z,21.33
2017-08-25T22:13:00.040Z,21.49
2017-08-25T22:15:25.831Z,21.37
2017-08-25T22:17:51.591Z,21.34
2017-08-25T22:20:17.376Z,21.22
2017-08-25T22:22:43.143Z,21.14
2017-08-25T22:25:09.307Z,21.07
2017-08-25T22:27:35.091Z,21.13
2017-08-25T22:30:01.549Z,21.14
2017-08-25T22:32:27.340Z,21.06
2017-08-25T22:34:53.104Z,20.99
2017-08-25T22:37:18.888Z,20.87
2017-08-25T22:39:44.794Z,20.95
2017-08-25T22:42:10.580Z,20.56
2017-08-25T22:44:36.340Z,20.78
2017-08-25T22:47:02.114Z,20.74
2017-08-25T22:49:27.895Z,20.79
2017-08-25T22:51:53.651Z,20.69
2017-08-25T22:54:19.443Z,20.65
2017-08-25T22:56:45.211Z,20.54
2017-08-25T22:59:10.980Z,20.52
2017-08-25T23:01:36.786Z,20.57
2017-08-25T23:04:02.559Z,20.56
2017-08-25T23:06:28.342Z,20.61
2017-08-25T23:08:54.127Z,20.49
2017-08-25T23:11:19.907Z,20.56
2017-08-25T23:13:45.703Z,20.47
2017-08-25T23:16:11.536Z,20.24
2017-08-25T23:18:37.302Z,20.38
2017-08-25T23:21:03.067Z,20.45
2017-08-25T23:23:28.866Z,20.36
2017-08-25T23:25:54.638Z,20.15
2017-08-25T23:28:20.398Z,20.16
2017-08-25T23:30:46.158Z,20.18
2017-08-25T23:33:11.946Z,20.25
2017-08-25T23:35:37.725Z,20.14
2017-08-25T23:38:03.507Z,20.11
2017-08-25T23:40:29.271Z,20.07
2017-08-25T23:42:55.082Z,20.03
2017-08-25T23:45:20.852Z,20.04
2017-08-25T23:47:46.695Z,20.06
2017-08-25T23:50:12.491Z,20.02
2017-08-25T23:52:38.254Z,19.98
2017-08-25T23:55:04.067Z,19.96
2017-08-25T23:57:29.855Z,20.03
2017-08-25T23:59:55.607Z,19.96
